SCIE 261800Z 11011KT 3000 +SHRA BKN015 OVC025 12/11 Q1014